sensor_id;sensor_type;location;lat;lon;timestamp;P1;durP1;ratioP1;P2;durP2;ratioP2
10343;SDS011;5217;43.960;10.954;2022-11-21T00:01:32;4.23;;;3.43;;
10343;SDS011;5217;43.960;10.954;2022-11-21T00:04:02;3.60;;;3.30;;
10343;SDS011;5217;43.960;10.954;2022-11-21T00:06:30;3.23;;;2.93;;
10343;SDS011;5217;43.960;10.954;2022-11-21T00:08:58;3.83;;;3.30;;
10343;SDS011;5217;43.960;10.954;2022-11-21T00:11:27;3.80;;;3.17;;
10343;SDS011;5217;43.960;10.954;2022-11-21T00:13:55;3.87;;;3.27;;
10343;SDS011;5217;43.960;10.954;2022-11-21T00:16:24;3.37;;;2.90;;
10343;SDS011;5217;43.960;10.954;2022-11-21T00:18:52;3.17;;;2.80;;
10343;SDS011;5217;43.960;10.954;2022-11-21T00:21:22;3.73;;;3.00;;
10343;SDS011;5217;43.960;10.954;2022-11-21T00:23:50;3.67;;;2.90;;
10343;SDS011;5217;43.960;10.954;2022-11-21T00:26:19;3.50;;;2.83;;
10343;SDS011;5217;43.960;10.954;2022-11-21T00:28:48;3.67;;;3.10;;
10343;SDS011;5217;43.960;10.954;2022-11-21T00:31:17;3.73;;;3.00;;
10343;SDS011;5217;43.960;10.954;2022-11-21T00:33:46;4.27;;;3.23;;
10343;SDS011;5217;43.960;10.954;2022-11-21T00:36:15;4.40;;;2.87;;
10343;SDS011;5217;43.960;10.954;2022-11-21T00:38:45;4.10;;;3.13;;
10343;SDS011;5217;43.960;10.954;2022-11-21T00:41:13;3.10;;;2.80;;
10343;SDS011;5217;43.960;10.954;2022-11-21T00:43:41;2.90;;;2.60;;
10343;SDS011;5217;43.960;10.954;2022-11-21T00:46:10;3.17;;;2.87;;
10343;SDS011;5217;43.960;10.954;2022-11-21T00:48:38;3.00;;;2.70;;
10343;SDS011;5217;43.960;10.954;2022-11-21T00:51:06;3.17;;;2.87;;
10343;SDS011;5217;43.960;10.954;2022-11-21T00:53:35;2.73;;;2.50;;
10343;SDS011;5217;43.960;10.954;2022-11-21T00:56:05;3.07;;;2.37;;
10343;SDS011;5217;43.960;10.954;2022-11-21T00:58:33;3.33;;;2.23;;
10343;SDS011;5217;43.960;10.954;2022-11-21T01:01:02;2.77;;;2.17;;
10343;SDS011;5217;43.960;10.954;2022-11-21T01:03:32;2.97;;;2.40;;
10343;SDS011;5217;43.960;10.954;2022-11-21T01:06:02;2.50;;;2.30;;
10343;SDS011;5217;43.960;10.954;2022-11-21T01:08:31;2.50;;;2.30;;
10343;SDS011;5217;43.960;10.954;2022-11-21T01:11:02;2.83;;;2.20;;
10343;SDS011;5217;43.960;10.954;2022-11-21T01:13:33;2.40;;;2.20;;
10343;SDS011;5217;43.960;10.954;2022-11-21T01:16:03;2.90;;;2.30;;
10343;SDS011;5217;43.960;10.954;2022-11-21T01:18:31;2.30;;;2.10;;
10343;SDS011;5217;43.960;10.954;2022-11-21T01:21:00;2.40;;;2.17;;
10343;SDS011;5217;43.960;10.954;2022-11-21T01:23:29;3.70;;;2.70;;
10343;SDS011;5217;43.960;10.954;2022-11-21T01:26:01;2.60;;;2.40;;
10343;SDS011;5217;43.960;10.954;2022-11-21T01:28:31;3.27;;;2.67;;
10343;SDS011;5217;43.960;10.954;2022-11-21T01:31:03;3.10;;;2.63;;
10343;SDS011;5217;43.960;10.954;2022-11-21T01:33:33;2.53;;;2.13;;
10343;SDS011;5217;43.960;10.954;2022-11-21T01:36:05;2.70;;;2.50;;
10343;SDS011;5217;43.960;10.954;2022-11-21T01:38:35;2.93;;;2.30;;
10343;SDS011;5217;43.960;10.954;2022-11-21T01:41:04;3.03;;;2.20;;
10343;SDS011;5217;43.960;10.954;2022-11-21T01:43:34;2.30;;;2.10;;
10343;SDS011;5217;43.960;10.954;2022-11-21T01:46:03;3.17;;;2.10;;
10343;SDS011;5217;43.960;10.954;2022-11-21T01:48:38;2.90;;;2.50;;
10343;SDS011;5217;43.960;10.954;2022-11-21T01:51:11;4.07;;;2.37;;
10343;SDS011;5217;43.960;10.954;2022-11-21T01:53:45;2.63;;;2.43;;
10343;SDS011;5217;43.960;10.954;2022-11-21T01:56:20;5.47;;;2.63;;
10343;SDS011;5217;43.960;10.954;2022-11-21T01:58:51;2.90;;;2.60;;
10343;SDS011;5217;43.960;10.954;2022-11-21T02:01:22;2.83;;;2.60;;
10343;SDS011;5217;43.960;10.954;2022-11-21T02:03:51;3.10;;;2.87;;
10343;SDS011;5217;43.960;10.954;2022-11-21T02:06:21;2.77;;;2.57;;
10343;SDS011;5217;43.960;10.954;2022-11-21T02:08:51;2.60;;;2.40;;
10343;SDS011;5217;43.960;10.954;2022-11-21T02:11:20;2.90;;;2.70;;
10343;SDS011;5217;43.960;10.954;2022-11-21T02:13:57;2.87;;;2.60;;
10343;SDS011;5217;43.960;10.954;2022-11-21T02:16:26;2.73;;;2.53;;
10343;SDS011;5217;43.960;10.954;2022-11-21T02:18:55;3.00;;;2.70;;
10343;SDS011;5217;43.960;10.954;2022-11-21T02:21:26;3.17;;;2.87;;
10343;SDS011;5217;43.960;10.954;2022-11-21T02:24:01;3.23;;;2.93;;
10343;SDS011;5217;43.960;10.954;2022-11-21T02:26:38;2.83;;;2.63;;
10343;SDS011;5217;43.960;10.954;2022-11-21T02:29:07;2.87;;;2.57;;
10343;SDS011;5217;43.960;10.954;2022-11-21T02:31:35;3.80;;;2.50;;
10343;SDS011;5217;43.960;10.954;2022-11-21T02:34:03;3.00;;;2.70;;
10343;SDS011;5217;43.960;10.954;2022-11-21T02:36:41;3.17;;;2.87;;
10343;SDS011;5217;43.960;10.954;2022-11-21T02:39:16;4.13;;;2.80;;
10343;SDS011;5217;43.960;10.954;2022-11-21T02:41:50;2.83;;;2.60;;
10343;SDS011;5217;43.960;10.954;2022-11-21T02:44:25;2.87;;;2.60;;
10343;SDS011;5217;43.960;10.954;2022-11-21T02:46:56;2.87;;;2.53;;
10343;SDS011;5217;43.960;10.954;2022-11-21T02:49:28;3.93;;;2.53;;
10343;SDS011;5217;43.960;10.954;2022-11-21T02:52:04;3.07;;;2.77;;
10343;SDS011;5217;43.960;10.954;2022-11-21T02:54:32;3.00;;;2.67;;
10343;SDS011;5217;43.960;10.954;2022-11-21T02:57:02;2.97;;;2.67;;
10343;SDS011;5217;43.960;10.954;2022-11-21T02:59:30;3.17;;;2.50;;
10343;SDS011;5217;43.960;10.954;2022-11-21T03:01:58;3.13;;;2.83;;
10343;SDS011;5217;43.960;10.954;2022-11-21T03:04:27;5.90;;;3.03;;
10343;SDS011;5217;43.960;10.954;2022-11-21T03:06:55;3.23;;;2.30;;
10343;SDS011;5217;43.960;10.954;2022-11-21T03:09:24;3.60;;;2.67;;
10343;SDS011;5217;43.960;10.954;2022-11-21T03:11:52;2.83;;;2.50;;
10343;SDS011;5217;43.960;10.954;2022-11-21T03:14:22;2.90;;;2.60;;
10343;SDS011;5217;43.960;10.954;2022-11-21T03:16:51;2.47;;;2.27;;
10343;SDS011;5217;43.960;10.954;2022-11-21T03:19:19;2.80;;;2.57;;
10343;SDS011;5217;43.960;10.954;2022-11-21T03:21:48;4.30;;;2.60;;
10343;SDS011;5217;43.960;10.954;2022-11-21T03:24:16;2.50;;;2.30;;
10343;SDS011;5217;43.960;10.954;2022-11-21T03:26:44;3.00;;;2.60;;
10343;SDS011;5217;43.960;10.954;2022-11-21T03:29:13;3.87;;;2.40;;
10343;SDS011;5217;43.960;10.954;2022-11-21T03:31:42;3.40;;;2.10;;
10343;SDS011;5217;43.960;10.954;2022-11-21T03:34:11;3.27;;;2.50;;
10343;SDS011;5217;43.960;10.954;2022-11-21T03:36:39;3.13;;;2.83;;
10343;SDS011;5217;43.960;10.954;2022-11-21T03:39:08;2.80;;;2.60;;
10343;SDS011;5217;43.960;10.954;2022-11-21T03:41:36;2.60;;;2.20;;
10343;SDS011;5217;43.960;10.954;2022-11-21T03:44:05;2.40;;;2.20;;
10343;SDS011;5217;43.960;10.954;2022-11-21T03:46:35;2.57;;;2.37;;
10343;SDS011;5217;43.960;10.954;2022-11-21T03:49:06;2.40;;;2.20;;
10343;SDS011;5217;43.960;10.954;2022-11-21T03:51:34;4.87;;;2.40;;
10343;SDS011;5217;43.960;10.954;2022-11-21T03:54:04;2.77;;;2.20;;
10343;SDS011;5217;43.960;10.954;2022-11-21T03:56:32;3.37;;;2.50;;
10343;SDS011;5217;43.960;10.954;2022-11-21T03:59:01;2.30;;;2.10;;
10343;SDS011;5217;43.960;10.954;2022-11-21T04:01:30;2.20;;;2.00;;
10343;SDS011;5217;43.960;10.954;2022-11-21T04:04:02;2.40;;;2.20;;
10343;SDS011;5217;43.960;10.954;2022-11-21T04:06:32;3.03;;;2.20;;
10343;SDS011;5217;43.960;10.954;2022-11-21T04:09:00;2.20;;;2.00;;
10343;SDS011;5217;43.960;10.954;2022-11-21T04:11:29;3.60;;;2.20;;
10343;SDS011;5217;43.960;10.954;2022-11-21T04:13:57;3.57;;;2.10;;
10343;SDS011;5217;43.960;10.954;2022-11-21T04:16:25;2.30;;;2.10;;
10343;SDS011;5217;43.960;10.954;2022-11-21T04:18:54;4.27;;;2.30;;
10343;SDS011;5217;43.960;10.954;2022-11-21T04:21:22;3.60;;;2.70;;
10343;SDS011;5217;43.960;10.954;2022-11-21T04:23:52;3.07;;;2.70;;
10343;SDS011;5217;43.960;10.954;2022-11-21T04:26:20;2.73;;;2.53;;
10343;SDS011;5217;43.960;10.954;2022-11-21T04:28:48;2.50;;;2.30;;
10343;SDS011;5217;43.960;10.954;2022-11-21T04:31:17;3.50;;;2.60;;
10343;SDS011;5217;43.960;10.954;2022-11-21T04:33:45;2.57;;;2.37;;
10343;SDS011;5217;43.960;10.954;2022-11-21T04:36:13;3.13;;;2.20;;
10343;SDS011;5217;43.960;10.954;2022-11-21T04:38:42;4.07;;;2.33;;
10343;SDS011;5217;43.960;10.954;2022-11-21T04:41:11;4.03;;;2.23;;
10343;SDS011;5217;43.960;10.954;2022-11-21T04:43:40;3.17;;;2.57;;
10343;SDS011;5217;43.960;10.954;2022-11-21T04:46:08;3.33;;;2.40;;
10343;SDS011;5217;43.960;10.954;2022-11-21T04:48:37;2.73;;;2.23;;
10343;SDS011;5217;43.960;10.954;2022-11-21T04:51:05;2.47;;;2.27;;
10343;SDS011;5217;43.960;10.954;2022-11-21T04:53:33;3.63;;;2.47;;
10343;SDS011;5217;43.960;10.954;2022-11-21T04:56:08;2.30;;;2.10;;
10343;SDS011;5217;43.960;10.954;2022-11-21T04:58:38;2.40;;;2.20;;
10343;SDS011;5217;43.960;10.954;2022-11-21T05:01:06;2.60;;;2.37;;
10343;SDS011;5217;43.960;10.954;2022-11-21T05:03:35;2.43;;;2.23;;
10343;SDS011;5217;43.960;10.954;2022-11-21T05:06:04;2.27;;;2.00;;
10343;SDS011;5217;43.960;10.954;2022-11-21T05:08:32;5.10;;;2.40;;
10343;SDS011;5217;43.960;10.954;2022-11-21T05:11:00;2.73;;;2.27;;
10343;SDS011;5217;43.960;10.954;2022-11-21T05:13:47;2.63;;;2.20;;
10343;SDS011;5217;43.960;10.954;2022-11-21T05:16:15;2.53;;;2.17;;
10343;SDS011;5217;43.960;10.954;2022-11-21T05:18:44;2.40;;;2.20;;
10343;SDS011;5217;43.960;10.954;2022-11-21T05:21:12;2.30;;;2.13;;
10343;SDS011;5217;43.960;10.954;2022-11-21T05:23:40;2.40;;;2.20;;
10343;SDS011;5217;43.960;10.954;2022-11-21T05:26:09;3.40;;;2.40;;
10343;SDS011;5217;43.960;10.954;2022-11-21T05:28:37;3.27;;;1.90;;
10343;SDS011;5217;43.960;10.954;2022-11-21T05:31:07;2.57;;;2.37;;
10343;SDS011;5217;43.960;10.954;2022-11-21T05:33:35;3.27;;;2.00;;
10343;SDS011;5217;43.960;10.954;2022-11-21T05:36:04;2.23;;;2.03;;
10343;SDS011;5217;43.960;10.954;2022-11-21T05:38:32;2.40;;;2.20;;
10343;SDS011;5217;43.960;10.954;2022-11-21T05:41:00;2.37;;;2.17;;
10343;SDS011;5217;43.960;10.954;2022-11-21T05:43:29;2.03;;;1.90;;
10343;SDS011;5217;43.960;10.954;2022-11-21T05:46:14;2.40;;;2.20;;
10343;SDS011;5217;43.960;10.954;2022-11-21T05:48:44;2.50;;;2.30;;
10343;SDS011;5217;43.960;10.954;2022-11-21T05:51:15;2.67;;;2.27;;
10343;SDS011;5217;43.960;10.954;2022-11-21T05:53:44;2.60;;;2.40;;
10343;SDS011;5217;43.960;10.954;2022-11-21T05:56:14;3.83;;;2.90;;
10343;SDS011;5217;43.960;10.954;2022-11-21T05:58:43;3.83;;;3.40;;
10343;SDS011;5217;43.960;10.954;2022-11-21T06:01:14;7.13;;;5.23;;
10343;SDS011;5217;43.960;10.954;2022-11-21T06:04:02;5.40;;;4.43;;
10343;SDS011;5217;43.960;10.954;2022-11-21T06:06:30;3.97;;;3.57;;
10343;SDS011;5217;43.960;10.954;2022-11-21T06:08:58;3.47;;;3.17;;
10343;SDS011;5217;43.960;10.954;2022-11-21T06:11:27;3.13;;;2.77;;
10343;SDS011;5217;43.960;10.954;2022-11-21T06:13:55;2.73;;;2.40;;
10343;SDS011;5217;43.960;10.954;2022-11-21T06:16:25;3.00;;;2.50;;
10343;SDS011;5217;43.960;10.954;2022-11-21T06:18:53;3.30;;;2.90;;
10343;SDS011;5217;43.960;10.954;2022-11-21T06:21:24;3.10;;;2.73;;
10343;SDS011;5217;43.960;10.954;2022-11-21T06:23:54;3.50;;;3.10;;
10343;SDS011;5217;43.960;10.954;2022-11-21T06:26:24;3.87;;;3.37;;
10343;SDS011;5217;43.960;10.954;2022-11-21T06:28:53;6.13;;;4.93;;
10343;SDS011;5217;43.960;10.954;2022-11-21T06:31:23;11.00;;;8.27;;
10343;SDS011;5217;43.960;10.954;2022-11-21T06:33:53;14.00;;;8.67;;
10343;SDS011;5217;43.960;10.954;2022-11-21T06:36:23;9.63;;;7.67;;
10343;SDS011;5217;43.960;10.954;2022-11-21T06:38:52;7.60;;;6.67;;
10343;SDS011;5217;43.960;10.954;2022-11-21T06:41:22;6.73;;;6.03;;
10343;SDS011;5217;43.960;10.954;2022-11-21T06:43:51;7.07;;;5.70;;
10343;SDS011;5217;43.960;10.954;2022-11-21T06:46:19;7.73;;;6.20;;
10343;SDS011;5217;43.960;10.954;2022-11-21T06:48:49;6.77;;;6.07;;
10343;SDS011;5217;43.960;10.954;2022-11-21T06:51:18;8.50;;;6.37;;
10343;SDS011;5217;43.960;10.954;2022-11-21T06:53:51;7.10;;;6.40;;
10343;SDS011;5217;43.960;10.954;2022-11-21T06:56:22;7.20;;;6.50;;
10343;SDS011;5217;43.960;10.954;2022-11-21T06:58:51;6.80;;;6.20;;
10343;SDS011;5217;43.960;10.954;2022-11-21T07:01:19;6.10;;;5.50;;
10343;SDS011;5217;43.960;10.954;2022-11-21T07:03:49;5.57;;;5.07;;
10343;SDS011;5217;43.960;10.954;2022-11-21T07:06:19;6.03;;;5.53;;
10343;SDS011;5217;43.960;10.954;2022-11-21T07:08:50;6.00;;;5.50;;
10343;SDS011;5217;43.960;10.954;2022-11-21T07:11:39;6.17;;;5.37;;
10343;SDS011;5217;43.960;10.954;2022-11-21T07:14:08;4.90;;;4.43;;
10343;SDS011;5217;43.960;10.954;2022-11-21T07:16:35;4.30;;;3.90;;
10343;SDS011;5217;43.960;10.954;2022-11-21T07:19:05;4.13;;;3.83;;
10343;SDS011;5217;43.960;10.954;2022-11-21T07:21:34;5.07;;;3.83;;
10343;SDS011;5217;43.960;10.954;2022-11-21T07:24:02;3.57;;;3.20;;
10343;SDS011;5217;43.960;10.954;2022-11-21T07:26:31;4.87;;;3.57;;
10343;SDS011;5217;43.960;10.954;2022-11-21T07:29:00;3.30;;;2.87;;
10343;SDS011;5217;43.960;10.954;2022-11-21T07:31:28;3.47;;;3.17;;
10343;SDS011;5217;43.960;10.954;2022-11-21T07:33:57;3.13;;;2.83;;
10343;SDS011;5217;43.960;10.954;2022-11-21T07:36:27;3.83;;;3.53;;
10343;SDS011;5217;43.960;10.954;2022-11-21T07:38:58;4.00;;;3.70;;
10343;SDS011;5217;43.960;10.954;2022-11-21T07:41:26;4.33;;;3.93;;
10343;SDS011;5217;43.960;10.954;2022-11-21T07:43:55;4.37;;;3.97;;
10343;SDS011;5217;43.960;10.954;2022-11-21T07:46:23;3.57;;;3.27;;
10343;SDS011;5217;43.960;10.954;2022-11-21T07:48:51;3.90;;;3.40;;
10343;SDS011;5217;43.960;10.954;2022-11-21T07:51:27;4.23;;;3.43;;
10343;SDS011;5217;43.960;10.954;2022-11-21T07:53:55;5.00;;;4.23;;
10343;SDS011;5217;43.960;10.954;2022-11-21T07:56:24;4.97;;;4.57;;
10343;SDS011;5217;43.960;10.954;2022-11-21T07:58:52;5.90;;;5.40;;
10343;SDS011;5217;43.960;10.954;2022-11-21T08:01:20;6.50;;;5.90;;
10343;SDS011;5217;43.960;10.954;2022-11-21T08:03:49;6.57;;;5.90;;
10343;SDS011;5217;43.960;10.954;2022-11-21T08:06:17;5.70;;;4.57;;
10343;SDS011;5217;43.960;10.954;2022-11-21T08:08:50;4.40;;;4.00;;
10343;SDS011;5217;43.960;10.954;2022-11-21T08:11:19;4.20;;;3.80;;
10343;SDS011;5217;43.960;10.954;2022-11-21T08:13:48;4.00;;;3.70;;
10343;SDS011;5217;43.960;10.954;2022-11-21T08:16:16;5.37;;;4.27;;
10343;SDS011;5217;43.960;10.954;2022-11-21T08:18:44;5.17;;;4.17;;
10343;SDS011;5217;43.960;10.954;2022-11-21T08:21:13;4.70;;;4.27;;
10343;SDS011;5217;43.960;10.954;2022-11-21T08:23:45;4.90;;;4.03;;
10343;SDS011;5217;43.960;10.954;2022-11-21T08:26:15;4.73;;;4.30;;
10343;SDS011;5217;43.960;10.954;2022-11-21T08:28:44;4.50;;;4.10;;
10343;SDS011;5217;43.960;10.954;2022-11-21T08:31:12;4.90;;;4.40;;
10343;SDS011;5217;43.960;10.954;2022-11-21T08:33:41;6.33;;;4.30;;
10343;SDS011;5217;43.960;10.954;2022-11-21T08:36:09;8.17;;;4.27;;
10343;SDS011;5217;43.960;10.954;2022-11-21T08:38:38;5.43;;;4.50;;
10343;SDS011;5217;43.960;10.954;2022-11-21T08:41:06;5.23;;;4.73;;
10343;SDS011;5217;43.960;10.954;2022-11-21T08:43:54;6.00;;;5.40;;
10343;SDS011;5217;43.960;10.954;2022-11-21T08:46:22;5.57;;;5.07;;
10343;SDS011;5217;43.960;10.954;2022-11-21T08:48:53;6.17;;;5.50;;
10343;SDS011;5217;43.960;10.954;2022-11-21T08:51:22;6.73;;;6.03;;
10343;SDS011;5217;43.960;10.954;2022-11-21T08:53:50;8.37;;;7.57;;
10343;SDS011;5217;43.960;10.954;2022-11-21T08:56:18;7.30;;;6.53;;
10343;SDS011;5217;43.960;10.954;2022-11-21T08:58:47;6.80;;;6.20;;
10343;SDS011;5217;43.960;10.954;2022-11-21T09:01:17;7.13;;;6.50;;
10343;SDS011;5217;43.960;10.954;2022-11-21T09:03:45;6.20;;;5.60;;
10343;SDS011;5217;43.960;10.954;2022-11-21T09:06:14;6.83;;;6.13;;
10343;SDS011;5217;43.960;10.954;2022-11-21T09:08:42;6.63;;;6.03;;
10343;SDS011;5217;43.960;10.954;2022-11-21T09:11:12;6.60;;;6.10;;
10343;SDS011;5217;43.960;10.954;2022-11-21T09:13:40;7.43;;;6.50;;
10343;SDS011;5217;43.960;10.954;2022-11-21T09:16:09;8.33;;;6.17;;
10343;SDS011;5217;43.960;10.954;2022-11-21T09:18:57;6.97;;;6.30;;
10343;SDS011;5217;43.960;10.954;2022-11-21T09:21:25;6.90;;;6.20;;
10343;SDS011;5217;43.960;10.954;2022-11-21T09:23:54;7.77;;;5.90;;
10343;SDS011;5217;43.960;10.954;2022-11-21T09:26:22;6.50;;;5.90;;
10343;SDS011;5217;43.960;10.954;2022-11-21T09:28:50;6.53;;;5.93;;
10343;SDS011;5217;43.960;10.954;2022-11-21T09:31:19;5.90;;;5.40;;
10343;SDS011;5217;43.960;10.954;2022-11-21T09:33:47;6.77;;;6.17;;
10343;SDS011;5217;43.960;10.954;2022-11-21T09:36:21;7.67;;;6.87;;
10343;SDS011;5217;43.960;10.954;2022-11-21T09:38:50;7.07;;;6.20;;
10343;SDS011;5217;43.960;10.954;2022-11-21T09:41:22;8.00;;;6.63;;
10343;SDS011;5217;43.960;10.954;2022-11-21T09:44:13;7.30;;;6.70;;
10343;SDS011;5217;43.960;10.954;2022-11-21T09:46:49;7.17;;;6.50;;
10343;SDS011;5217;43.960;10.954;2022-11-21T09:49:22;6.83;;;6.03;;
10343;SDS011;5217;43.960;10.954;2022-11-21T09:51:54;6.57;;;5.97;;
10343;SDS011;5217;43.960;10.954;2022-11-21T09:54:25;7.87;;;7.17;;
10343;SDS011;5217;43.960;10.954;2022-11-21T09:56:59;10.00;;;8.33;;
10343;SDS011;5217;43.960;10.954;2022-11-21T09:59:31;8.10;;;7.30;;
10343;SDS011;5217;43.960;10.954;2022-11-21T10:02:01;7.87;;;7.17;;
10343;SDS011;5217;43.960;10.954;2022-11-21T10:04:37;8.23;;;5.70;;
10343;SDS011;5217;43.960;10.954;2022-11-21T10:07:10;6.00;;;5.50;;
10343;SDS011;5217;43.960;10.954;2022-11-21T10:09:46;5.83;;;5.30;;
10343;SDS011;5217;43.960;10.954;2022-11-21T10:12:44;5.10;;;4.57;;
10343;SDS011;5217;43.960;10.954;2022-11-21T10:15:35;5.03;;;4.57;;
10343;SDS011;5217;43.960;10.954;2022-11-21T10:18:21;4.63;;;4.23;;
10343;SDS011;5217;43.960;10.954;2022-11-21T10:21:02;4.77;;;4.23;;
10343;SDS011;5217;43.960;10.954;2022-11-21T10:26:47;5.27;;;4.77;;
10343;SDS011;5217;43.960;10.954;2022-11-21T10:29:20;5.90;;;4.97;;
10343;SDS011;5217;43.960;10.954;2022-11-21T10:31:53;5.27;;;4.77;;
10343;SDS011;5217;43.960;10.954;2022-11-21T10:34:28;5.37;;;4.87;;
10343;SDS011;5217;43.960;10.954;2022-11-21T10:37:02;5.67;;;4.27;;
10343;SDS011;5217;43.960;10.954;2022-11-21T10:39:40;5.07;;;4.27;;
10343;SDS011;5217;43.960;10.954;2022-11-21T10:42:14;5.57;;;4.80;;
10343;SDS011;5217;43.960;10.954;2022-11-21T10:44:50;5.00;;;4.50;;
10343;SDS011;5217;43.960;10.954;2022-11-21T10:47:36;6.90;;;4.50;;
10343;SDS011;5217;43.960;10.954;2022-11-21T10:50:14;7.47;;;4.45;;
10343;SDS011;5217;43.960;10.954;2022-11-21T10:52:57;6.37;;;4.10;;
10343;SDS011;5217;43.960;10.954;2022-11-21T10:55:56;6.57;;;4.37;;
10343;SDS011;5217;43.960;10.954;2022-11-21T10:58:39;5.35;;;4.28;;
10343;SDS011;5217;43.960;10.954;2022-11-21T11:01:19;4.47;;;4.07;;
10343;SDS011;5217;43.960;10.954;2022-11-21T11:04:03;4.82;;;3.60;;
10343;SDS011;5217;43.960;10.954;2022-11-21T11:06:54;4.13;;;3.42;;
10343;SDS011;5217;43.960;10.954;2022-11-21T11:09:23;3.80;;;3.50;;
10343;SDS011;5217;43.960;10.954;2022-11-21T11:15:19;3.80;;;3.40;;
10343;SDS011;5217;43.960;10.954;2022-11-21T11:17:52;3.38;;;2.92;;
10343;SDS011;5217;43.960;10.954;2022-11-21T11:20:31;3.60;;;3.25;;
10343;SDS011;5217;43.960;10.954;2022-11-21T11:23:14;3.83;;;3.40;;
10343;SDS011;5217;43.960;10.954;2022-11-21T11:25:50;3.42;;;3.13;;
10343;SDS011;5217;43.960;10.954;2022-11-21T11:28:19;4.28;;;3.60;;
10343;SDS011;5217;43.960;10.954;2022-11-21T11:30:51;3.83;;;3.50;;
10343;SDS011;5217;43.960;10.954;2022-11-21T11:33:28;3.95;;;3.50;;
10343;SDS011;5217;43.960;10.954;2022-11-21T11:36:01;4.43;;;3.80;;
10343;SDS011;5217;43.960;10.954;2022-11-21T11:38:42;4.55;;;3.60;;
10343;SDS011;5217;43.960;10.954;2022-11-21T11:41:18;4.70;;;3.60;;
10343;SDS011;5217;43.960;10.954;2022-11-21T11:44:27;4.60;;;3.70;;
10343;SDS011;5217;43.960;10.954;2022-11-21T11:47:22;5.90;;;3.65;;
10343;SDS011;5217;43.960;10.954;2022-11-21T11:49:58;3.63;;;3.13;;
10343;SDS011;5217;43.960;10.954;2022-11-21T11:52:49;4.07;;;3.00;;
10343;SDS011;5217;43.960;10.954;2022-11-21T11:55:25;4.17;;;3.20;;
10343;SDS011;5217;43.960;10.954;2022-11-21T11:58:00;3.20;;;2.70;;
10343;SDS011;5217;43.960;10.954;2022-11-21T12:00:34;4.63;;;2.58;;
10343;SDS011;5217;43.960;10.954;2022-11-21T12:03:12;5.63;;;3.08;;
10343;SDS011;5217;43.960;10.954;2022-11-21T12:05:50;3.08;;;2.80;;
10343;SDS011;5217;43.960;10.954;2022-11-21T12:08:37;4.97;;;2.88;;
10343;SDS011;5217;43.960;10.954;2022-11-21T12:11:15;3.38;;;3.08;;
10343;SDS011;5217;43.960;10.954;2022-11-21T12:17:39;4.13;;;3.00;;
10343;SDS011;5217;43.960;10.954;2022-11-21T12:20:16;3.72;;;3.42;;
10343;SDS011;5217;43.960;10.954;2022-11-21T12:22:48;5.05;;;3.40;;
10343;SDS011;5217;43.960;10.954;2022-11-21T12:25:20;4.53;;;3.60;;
10343;SDS011;5217;43.960;10.954;2022-11-21T12:27:53;4.50;;;3.45;;
10343;SDS011;5217;43.960;10.954;2022-11-21T12:30:36;3.53;;;3.22;;
10343;SDS011;5217;43.960;10.954;2022-11-21T12:33:18;5.32;;;4.55;;
10343;SDS011;5217;43.960;10.954;2022-11-21T12:36:10;6.20;;;4.20;;
10343;SDS011;5217;43.960;10.954;2022-11-21T12:38:49;5.47;;;4.30;;
10343;SDS011;5217;43.960;10.954;2022-11-21T12:41:35;4.60;;;4.15;;
10343;SDS011;5217;43.960;10.954;2022-11-21T12:44:30;4.20;;;3.80;;
10343;SDS011;5217;43.960;10.954;2022-11-21T12:47:15;3.95;;;3.53;;
10343;SDS011;5217;43.960;10.954;2022-11-21T12:49:53;3.67;;;3.22;;
10343;SDS011;5217;43.960;10.954;2022-11-21T12:52:49;3.37;;;3.00;;
10343;SDS011;5217;43.960;10.954;2022-11-21T12:55:41;2.80;;;2.60;;
10343;SDS011;5217;43.960;10.954;2022-11-21T12:58:16;3.58;;;3.28;;
10343;SDS011;5217;43.960;10.954;2022-11-21T13:01:01;4.30;;;3.70;;
10343;SDS011;5217;43.960;10.954;2022-11-21T13:03:49;5.57;;;4.15;;
10343;SDS011;5217;43.960;10.954;2022-11-21T13:06:22;3.70;;;3.40;;
10343;SDS011;5217;43.960;10.954;2022-11-21T13:08:55;4.47;;;3.60;;
10343;SDS011;5217;43.960;10.954;2022-11-21T13:11:29;4.60;;;3.45;;
10343;SDS011;5217;43.960;10.954;2022-11-21T13:14:25;4.27;;;3.50;;
10343;SDS011;5217;43.960;10.954;2022-11-21T13:17:01;3.63;;;3.33;;
10343;SDS011;5217;43.960;10.954;2022-11-21T13:19:41;4.53;;;4.13;;
10343;SDS011;5217;43.960;10.954;2022-11-21T13:28:29;16.00;;;12.57;;
10343;SDS011;5217;43.960;10.954;2022-11-21T13:30:59;26.27;;;18.08;;
10343;SDS011;5217;43.960;10.954;2022-11-21T13:33:44;37.00;;;22.33;;
10343;SDS011;5217;43.960;10.954;2022-11-21T13:42:06;7.53;;;5.43;;
10343;SDS011;5217;43.960;10.954;2022-11-21T13:44:56;6.17;;;4.60;;
10343;SDS011;5217;43.960;10.954;2022-11-21T13:53:36;4.73;;;4.33;;
10343;SDS011;5217;43.960;10.954;2022-11-21T13:56:24;5.43;;;3.80;;
10343;SDS011;5217;43.960;10.954;2022-11-21T13:59:02;4.23;;;3.83;;
10343;SDS011;5217;43.960;10.954;2022-11-21T14:07:45;5.17;;;4.70;;
10343;SDS011;5217;43.960;10.954;2022-11-21T14:10:17;4.63;;;4.20;;
10343;SDS011;5217;43.960;10.954;2022-11-21T14:12:56;6.50;;;5.40;;
10343;SDS011;5217;43.960;10.954;2022-11-21T14:15:27;7.70;;;6.53;;
10343;SDS011;5217;43.960;10.954;2022-11-21T14:18:11;7.70;;;6.43;;
10343;SDS011;5217;43.960;10.954;2022-11-21T14:20:48;7.10;;;5.57;;
10343;SDS011;5217;43.960;10.954;2022-11-21T14:23:22;6.03;;;5.30;;
10343;SDS011;5217;43.960;10.954;2022-11-21T14:25:53;5.80;;;5.20;;
10343;SDS011;5217;43.960;10.954;2022-11-21T14:28:23;6.53;;;5.27;;
10343;SDS011;5217;43.960;10.954;2022-11-21T14:30:57;6.93;;;5.57;;
10343;SDS011;5217;43.960;10.954;2022-11-21T14:33:28;6.60;;;5.90;;
10343;SDS011;5217;43.960;10.954;2022-11-21T14:35:59;8.10;;;7.30;;
10343;SDS011;5217;43.960;10.954;2022-11-21T14:38:34;11.23;;;9.90;;
10343;SDS011;5217;43.960;10.954;2022-11-21T14:41:17;8.53;;;7.20;;
10343;SDS011;5217;43.960;10.954;2022-11-21T14:44:00;7.30;;;6.60;;
10343;SDS011;5217;43.960;10.954;2022-11-21T14:46:44;7.13;;;6.07;;
10343;SDS011;5217;43.960;10.954;2022-11-21T14:49:20;7.13;;;6.43;;
10343;SDS011;5217;43.960;10.954;2022-11-21T14:51:52;9.20;;;7.57;;
10343;SDS011;5217;43.960;10.954;2022-11-21T14:54:28;10.20;;;9.20;;
10343;SDS011;5217;43.960;10.954;2022-11-21T14:56:59;11.10;;;10.10;;
10343;SDS011;5217;43.960;10.954;2022-11-21T14:59:30;14.77;;;13.37;;
10343;SDS011;5217;43.960;10.954;2022-11-21T15:02:06;19.67;;;16.93;;
10343;SDS011;5217;43.960;10.954;2022-11-21T15:04:40;18.83;;;16.97;;
10343;SDS011;5217;43.960;10.954;2022-11-21T15:07:19;18.03;;;16.17;;
10343;SDS011;5217;43.960;10.954;2022-11-21T15:09:57;15.80;;;13.60;;
10343;SDS011;5217;43.960;10.954;2022-11-21T15:12:51;13.87;;;12.43;;
10343;SDS011;5217;43.960;10.954;2022-11-21T15:15:26;16.23;;;12.70;;
10343;SDS011;5217;43.960;10.954;2022-11-21T15:17:59;16.77;;;14.93;;
10343;SDS011;5217;43.960;10.954;2022-11-21T15:20:50;28.10;;;25.17;;
10343;SDS011;5217;43.960;10.954;2022-11-21T15:23:27;26.00;;;23.27;;
10343;SDS011;5217;43.960;10.954;2022-11-21T15:25:57;21.57;;;18.90;;
10343;SDS011;5217;43.960;10.954;2022-11-21T15:28:27;19.57;;;17.03;;
10343;SDS011;5217;43.960;10.954;2022-11-21T15:31:13;16.03;;;13.93;;
10343;SDS011;5217;43.960;10.954;2022-11-21T15:33:56;12.67;;;10.47;;
10343;SDS011;5217;43.960;10.954;2022-11-21T15:36:59;9.83;;;8.83;;
10343;SDS011;5217;43.960;10.954;2022-11-21T15:39:30;10.07;;;9.07;;
10343;SDS011;5217;43.960;10.954;2022-11-21T15:44:56;7.80;;;7.00;;
10343;SDS011;5217;43.960;10.954;2022-11-21T15:47:25;9.53;;;8.37;;
10343;SDS011;5217;43.960;10.954;2022-11-21T15:49:55;9.13;;;8.20;;
10343;SDS011;5217;43.960;10.954;2022-11-21T15:52:24;8.77;;;7.83;;
10343;SDS011;5217;43.960;10.954;2022-11-21T15:54:52;7.63;;;6.93;;
10343;SDS011;5217;43.960;10.954;2022-11-21T15:57:21;8.20;;;7.40;;